KFHR/FHR METAR and TAF weather

Enter ICAO airport designator
Station Type Date Time Source
KFHR METAR 2020/08/14 02:53 UTC NOAA

KFHR 140253Z AUTO 26004KT 10SM CLR 15/09 A3016 RMK AO2 SLP215 T01500094 56003


Station Type Date Time Source
KFHR Decoded METAR 2020/08/14 02:53 UTC NOAA

FRIDAY HARBOR AIRPORT, WA, United States (KFHR) 48-31N 123-02W 32M
Aug 13, 2020 - 10:53 PM EDT / 2020.08.14 0253 UTC
Wind: from the W (260 degrees) at 5 MPH (4 KT):0
Visibility: 10 mile(s):0
Sky conditions: clear
Temperature: 59.0 F (15.0 C)
Dew Point: 48.9 F (9.4 C)
Relative Humidity: 69%
Pressure (altimeter): 30.16 in. Hg (1021 hPa)
Pressure tendency: 0.01 inches (0.3 hPa) lower than three hours ago
ob: KFHR 140253Z AUTO 26004KT 10SM CLR 15/09 A3016 RMK AO2 SLP215 T01500094 56003
cycle: 3

Station Type Date Time Source
KFHR TAF UTC NOAA

Error!

Example: see airport list